createdAt,value
2023-02-24T00:02:04.914Z,13.02
2023-02-24T00:04:38.437Z,12.23
2023-02-24T00:07:06.391Z,10.75
2023-02-24T00:09:33.315Z,11.48
2023-02-24T00:12:08.816Z,10.20
2023-02-24T00:14:38.032Z,8.63
2023-02-24T00:17:08.077Z,9.80
2023-02-24T00:19:35.132Z,9.63
2023-02-24T00:22:03.074Z,9.40
2023-02-24T00:24:30.583Z,8.82
2023-02-24T00:27:00.376Z,9.98
2023-02-24T00:29:28.989Z,9.30
2023-02-24T00:32:01.054Z,9.90
2023-02-24T00:34:33.867Z,8.27
2023-02-24T00:37:00.625Z,8.15
2023-02-24T00:39:30.784Z,9.30
2023-02-24T00:42:04.309Z,8.32
2023-02-24T00:44:33.654Z,8.55
2023-02-24T00:47:01.964Z,8.55
2023-02-24T00:49:29.342Z,8.30
2023-02-24T00:51:57.572Z,7.15
2023-02-24T00:56:55.607Z,6.68
2023-02-24T00:59:24.038Z,6.47
2023-02-24T01:01:51.523Z,6.35
2023-02-24T01:04:19.964Z,6.18
2023-02-24T01:06:59.912Z,6.68
2023-02-24T01:09:30.553Z,8.40
2023-02-24T01:12:17.229Z,8.23
2023-02-24T01:14:47.681Z,9.80
2023-02-24T01:17:16.005Z,10.68
2023-02-24T01:19:44.701Z,10.73
2023-02-24T01:22:14.933Z,10.73
2023-02-24T01:24:43.319Z,9.88
2023-02-24T01:27:28.450Z,10.52
2023-02-24T01:29:55.186Z,9.52
2023-02-24T01:32:22.310Z,10.90
2023-02-24T01:34:52.016Z,11.25
2023-02-24T01:37:19.621Z,11.10
2023-02-24T01:39:46.938Z,8.93
2023-02-24T01:42:21.754Z,5.93
2023-02-24T01:44:48.849Z,6.80
2023-02-24T01:47:20.800Z,6.20
2023-02-24T01:49:52.530Z,7.70
2023-02-24T01:52:25.414Z,6.88
2023-02-24T01:54:57.998Z,7.03
2023-02-24T01:57:28.171Z,8.38
2023-02-24T02:00:02.097Z,9.02
2023-02-24T02:02:29.545Z,11.63
2023-02-24T02:05:05.620Z,11.55
2023-02-24T02:07:32.865Z,11.95
2023-02-24T02:12:32.772Z,11.90
2023-02-24T02:15:01.899Z,10.95
2023-02-24T02:18:04.679Z,12.27
2023-02-24T02:20:49.108Z,12.23
2023-02-24T02:23:45.778Z,11.63
2023-02-24T02:26:44.181Z,12.27
2023-02-24T02:29:19.796Z,11.52
2023-02-24T02:32:43.529Z,12.60
2023-02-24T02:35:23.706Z,10.63
2023-02-24T02:38:03.225Z,10.93
2023-02-24T02:40:38.943Z,11.13
2023-02-24T02:43:18.372Z,10.93
2023-02-24T02:46:34.895Z,12.02
2023-02-24T02:49:16.899Z,11.18
2023-02-24T02:51:52.686Z,12.45
2023-02-24T02:54:28.455Z,11.88
2023-02-24T02:57:06.806Z,11.52
2023-02-24T02:59:37.600Z,12.75
2023-02-24T03:02:15.036Z,11.80
2023-02-24T03:04:55.024Z,10.95
2023-02-24T03:07:31.428Z,8.48
2023-02-24T03:10:10.773Z,8.13
2023-02-24T03:12:40.884Z,9.82
2023-02-24T03:15:10.962Z,8.07
2023-02-24T03:17:41.584Z,10.10
2023-02-24T03:20:29.108Z,11.32
2023-02-24T03:23:03.014Z,11.95
2023-02-24T03:25:44.508Z,11.73
2023-02-24T03:28:35.772Z,11.30
2023-02-24T03:31:09.045Z,12.13
2023-02-24T03:33:41.632Z,10.25
2023-02-24T03:36:08.811Z,11.60
2023-02-24T03:38:38.710Z,11.02
2023-02-24T03:41:11.120Z,10.85
2023-02-24T03:43:47.750Z,11.82
2023-02-24T03:46:19.258Z,10.80
2023-02-24T03:48:55.684Z,9.50
2023-02-24T03:51:23.427Z,6.88
2023-02-24T03:54:13.821Z,8.60
2023-02-24T03:57:12.376Z,7.68
2023-02-24T04:02:52.684Z,6.95
2023-02-24T04:05:27.463Z,7.30
2023-02-24T04:08:09.651Z,6.68
2023-02-24T04:10:54.562Z,6.70
2023-02-24T04:13:52.761Z,10.07
2023-02-24T04:16:28.943Z,11.40
2023-02-24T04:19:03.827Z,10.93
2023-02-24T04:21:34.127Z,11.65
2023-02-24T04:24:06.325Z,11.50
2023-02-24T04:26:40.351Z,11.57
2023-02-24T04:29:09.721Z,10.60
2023-02-24T04:31:39.001Z,11.10
2023-02-24T04:34:09.366Z,11.02
2023-02-24T04:36:38.506Z,10.70
2023-02-24T04:39:07.128Z,9.77
2023-02-24T04:41:35.720Z,10.88
2023-02-24T04:44:02.455Z,11.32
2023-02-24T04:46:32.332Z,8.23
2023-02-24T04:49:02.059Z,12.38
2023-02-24T04:51:31.763Z,11.85
2023-02-24T04:53:58.428Z,12.18
2023-02-24T04:56:25.113Z,10.30
2023-02-24T04:58:51.823Z,7.63
2023-02-24T05:01:18.604Z,6.22
2023-02-24T05:03:45.754Z,7.05
2023-02-24T05:06:16.082Z,7.53
2023-02-24T05:08:42.866Z,8.82
2023-02-24T05:11:16.544Z,11.38
2023-02-24T05:13:46.128Z,12.07
2023-02-24T05:16:17.667Z,12.55
2023-02-24T05:18:44.729Z,12.82
2023-02-24T05:21:36.304Z,13.38
2023-02-24T05:24:06.334Z,11.32
2023-02-24T05:26:35.864Z,12.55
2023-02-24T05:29:04.131Z,11.70
2023-02-24T05:31:31.177Z,12.02
2023-02-24T05:34:07.524Z,12.20
2023-02-24T05:36:40.244Z,12.02
2023-02-24T05:39:11.957Z,10.98
2023-02-24T05:41:41.855Z,11.23
2023-02-24T05:44:12.412Z,11.18
2023-02-24T05:46:41.697Z,11.25
2023-02-24T05:49:23.417Z,12.13
2023-02-24T05:51:55.602Z,11.90
2023-02-24T05:54:35.781Z,11.63
2023-02-24T05:57:05.512Z,11.68
2023-02-24T05:59:33.537Z,13.50
2023-02-24T06:02:07.407Z,15.85
2023-02-24T06:04:50.585Z,14.80
2023-02-24T06:07:26.354Z,14.15
2023-02-24T06:09:56.974Z,13.85
2023-02-24T06:12:34.449Z,11.05
2023-02-24T06:15:02.310Z,13.00
2023-02-24T06:17:29.202Z,11.98
2023-02-24T06:19:55.960Z,11.55
2023-02-24T06:22:24.660Z,9.10
2023-02-24T06:24:54.021Z,12.15
2023-02-24T06:27:21.731Z,12.68
2023-02-24T06:29:53.770Z,12.73
2023-02-24T06:32:24.262Z,11.15
2023-02-24T06:34:51.898Z,7.68
2023-02-24T06:37:18.811Z,8.77
2023-02-24T06:39:45.886Z,13.10
2023-02-24T06:42:13.571Z,12.68
2023-02-24T06:44:41.065Z,12.88
2023-02-24T06:47:11.074Z,12.95
2023-02-24T06:49:37.794Z,13.77
2023-02-24T06:52:05.856Z,11.40
2023-02-24T06:54:35.755Z,11.77
2023-02-24T06:57:03.380Z,11.63
2023-02-24T06:59:30.688Z,11.45
2023-02-24T07:01:59.351Z,11.93
2023-02-24T07:04:28.907Z,11.52
2023-02-24T07:07:02.714Z,11.98
2023-02-24T07:09:30.692Z,11.57
2023-02-24T07:11:58.635Z,11.27
2023-02-24T07:14:30.489Z,11.95
2023-02-24T07:16:58.314Z,11.93
2023-02-24T07:19:29.059Z,11.77
2023-02-24T07:22:01.883Z,11.45
2023-02-24T07:24:59.535Z,11.20
2023-02-24T07:27:27.561Z,10.77
2023-02-24T07:29:54.310Z,11.70
2023-02-24T07:32:25.405Z,14.48
2023-02-24T07:34:52.888Z,12.68
2023-02-24T07:39:47.381Z,11.48
2023-02-24T07:42:14.105Z,11.50
2023-02-24T07:44:46.448Z,10.32
2023-02-24T07:47:13.519Z,10.65
2023-02-24T07:49:40.917Z,11.40
2023-02-24T07:52:08.382Z,10.93
2023-02-24T07:57:01.728Z,10.65
2023-02-24T07:59:32.322Z,10.90
2023-02-24T08:01:59.423Z,12.05
2023-02-24T08:04:30.010Z,11.00
2023-02-24T08:06:59.021Z,10.18
2023-02-24T08:09:46.612Z,10.40
2023-02-24T08:12:21.202Z,10.80
2023-02-24T08:14:53.382Z,11.10
2023-02-24T08:17:26.215Z,11.18
2023-02-24T08:20:14.694Z,10.52
2023-02-24T08:22:51.952Z,10.35
2023-02-24T08:25:22.643Z,10.32
2023-02-24T08:28:12.993Z,10.23
2023-02-24T08:30:47.434Z,10.38
2023-02-24T08:33:20.412Z,10.70
2023-02-24T08:35:51.835Z,10.40
2023-02-24T08:38:21.032Z,10.60
2023-02-24T08:40:50.827Z,10.15
2023-02-24T08:43:19.895Z,11.18
2023-02-24T08:46:21.366Z,9.80
2023-02-24T08:49:00.889Z,10.88
2023-02-24T08:51:29.174Z,9.70
2023-02-24T08:53:58.644Z,10.02
2023-02-24T08:56:28.529Z,10.23
2023-02-24T08:58:57.941Z,11.48
2023-02-24T09:01:27.846Z,10.48
2023-02-24T09:03:59.145Z,11.48
2023-02-24T09:06:43.773Z,10.88
2023-02-24T09:09:18.750Z,10.95
2023-02-24T09:11:48.356Z,9.13
2023-02-24T09:14:26.544Z,10.32
2023-02-24T09:17:06.424Z,10.35
2023-02-24T09:19:48.164Z,10.45
2023-02-24T09:22:33.260Z,10.25
2023-02-24T09:25:18.769Z,10.30
2023-02-24T09:27:52.156Z,10.73
2023-02-24T09:30:37.007Z,10.30
2023-02-24T09:33:17.473Z,11.95
2023-02-24T09:35:46.715Z,10.65
2023-02-24T09:38:16.707Z,9.88
2023-02-24T09:40:49.080Z,10.23
2023-02-24T09:43:25.470Z,10.20
2023-02-24T09:46:14.296Z,10.88
2023-02-24T09:49:17.699Z,11.15
2023-02-24T09:51:45.256Z,10.77
2023-02-24T09:54:18.780Z,11.00
2023-02-24T09:57:08.428Z,10.63
2023-02-24T10:00:00.817Z,10.13
2023-02-24T10:03:19.641Z,10.38
2023-02-24T10:06:12.085Z,10.13
2023-02-24T10:08:44.051Z,11.07
2023-02-24T10:11:12.687Z,10.35
2023-02-24T10:13:53.785Z,10.18
2023-02-24T10:16:24.077Z,10.27
2023-02-24T10:19:14.998Z,10.30
2023-02-24T10:22:00.242Z,10.45
2023-02-24T10:24:29.894Z,10.18
2023-02-24T10:27:08.329Z,9.10
2023-02-24T10:30:10.780Z,10.50
2023-02-24T10:32:47.857Z,10.43
2023-02-24T10:35:18.061Z,9.97
2023-02-24T10:37:45.356Z,9.80
2023-02-24T10:42:48.848Z,9.32
2023-02-24T10:45:18.051Z,8.95
2023-02-24T10:47:56.685Z,9.75
2023-02-24T10:50:27.072Z,10.05
2023-02-24T10:53:02.517Z,10.00
2023-02-24T10:55:44.249Z,9.57
2023-02-24T10:58:37.788Z,11.52
2023-02-24T11:01:18.202Z,10.75
2023-02-24T11:04:12.282Z,9.27
2023-02-24T11:06:41.889Z,10.23
2023-02-24T11:09:29.621Z,10.20
2023-02-24T11:12:23.359Z,9.53
2023-02-24T11:15:15.219Z,9.45
2023-02-24T11:17:52.940Z,9.45
2023-02-24T11:20:42.559Z,10.25
2023-02-24T11:23:24.860Z,9.88
2023-02-24T11:25:58.181Z,10.60
2023-02-24T11:29:04.180Z,9.80
2023-02-24T11:31:59.548Z,10.77
2023-02-24T11:34:49.349Z,10.00
2023-02-24T11:37:43.365Z,9.25
2023-02-24T11:40:23.189Z,10.10
2023-02-24T11:42:58.512Z,10.25
2023-02-24T11:45:33.926Z,10.52
2023-02-24T11:48:25.212Z,10.07
2023-02-24T11:51:13.513Z,10.70
2023-02-24T11:53:51.159Z,10.15
2023-02-24T11:56:39.280Z,10.38
2023-02-24T11:59:22.482Z,11.43
2023-02-24T12:02:15.460Z,11.18
2023-02-24T12:05:06.822Z,10.40
2023-02-24T12:07:41.253Z,10.35
2023-02-24T12:10:17.660Z,10.65
2023-02-24T12:13:08.632Z,10.43
2023-02-24T12:15:50.739Z,10.48
2023-02-24T12:18:39.273Z,10.20
2023-02-24T12:23:44.619Z,10.32
2023-02-24T12:26:25.812Z,9.88
2023-02-24T12:29:16.113Z,11.77
2023-02-24T12:32:07.776Z,10.25
2023-02-24T12:35:07.277Z,10.95
2023-02-24T12:38:09.422Z,9.57
2023-02-24T12:41:17.732Z,10.60
2023-02-24T12:44:11.257Z,10.32
2023-02-24T12:46:39.973Z,9.93
2023-02-24T12:49:30.838Z,10.15
2023-02-24T12:52:12.546Z,10.95
2023-02-24T12:54:51.096Z,10.90
2023-02-24T12:57:59.712Z,11.65
2023-02-24T13:00:38.467Z,10.77
2023-02-24T13:03:23.196Z,9.98
2023-02-24T13:06:26.756Z,10.70
2023-02-24T13:09:20.971Z,9.93
2023-02-24T13:12:21.104Z,10.88
2023-02-24T13:14:49.215Z,10.45
2023-02-24T13:17:20.150Z,10.40
2023-02-24T13:19:49.088Z,10.70
2023-02-24T13:22:16.783Z,10.48
2023-02-24T13:25:02.937Z,10.98
2023-02-24T13:27:35.130Z,9.10
2023-02-24T13:30:24.817Z,9.45
2023-02-24T13:33:23.061Z,10.63
2023-02-24T13:36:04.579Z,10.30
2023-02-24T13:38:31.263Z,10.80
2023-02-24T13:41:27.289Z,9.65
2023-02-24T13:44:00.666Z,10.32
2023-02-24T13:46:36.452Z,8.95
2023-02-24T13:49:24.262Z,9.10
2023-02-24T13:52:25.837Z,9.75
2023-02-24T13:54:58.542Z,9.18
2023-02-24T13:57:45.663Z,9.10
2023-02-24T14:00:26.628Z,9.27
2023-02-24T14:02:54.316Z,8.77
2023-02-24T14:05:31.804Z,7.72
2023-02-24T14:07:59.530Z,8.20
2023-02-24T14:10:28.381Z,6.57
2023-02-24T14:13:16.830Z,5.78
2023-02-24T14:15:45.608Z,6.22
2023-02-24T14:18:24.648Z,6.20
2023-02-24T14:20:53.472Z,6.97
2023-02-24T14:23:23.755Z,5.82
2023-02-24T14:26:08.114Z,6.63
2023-02-24T14:28:37.358Z,5.45
2023-02-24T14:31:15.088Z,6.00
2023-02-24T14:33:44.323Z,5.38
2023-02-24T14:36:18.363Z,5.97
2023-02-24T14:38:45.471Z,6.25
2023-02-24T14:41:25.419Z,6.38
2023-02-24T14:43:53.454Z,5.95
2023-02-24T14:46:20.835Z,5.95
2023-02-24T14:48:56.057Z,5.90
2023-02-24T14:51:27.170Z,6.30
2023-02-24T14:53:59.145Z,6.43
2023-02-24T14:56:32.356Z,6.32
2023-02-24T14:59:22.367Z,6.35
2023-02-24T15:01:51.619Z,6.18
2023-02-24T15:04:39.221Z,5.88
2023-02-24T15:07:17.335Z,6.65
2023-02-24T15:09:46.866Z,8.02
2023-02-24T15:12:21.964Z,6.63
2023-02-24T15:14:56.620Z,5.45
2023-02-24T15:17:24.051Z,6.45
2023-02-24T15:19:54.619Z,7.72
2023-02-24T15:22:33.598Z,7.47
2023-02-24T15:25:24.023Z,6.97
2023-02-24T15:28:00.420Z,6.60
2023-02-24T15:30:34.049Z,6.53
2023-02-24T15:33:17.390Z,6.38
2023-02-24T15:35:51.210Z,6.90
2023-02-24T15:38:30.675Z,7.00
2023-02-24T15:40:59.858Z,6.28
2023-02-24T15:43:48.112Z,5.93
2023-02-24T15:46:32.712Z,6.85
2023-02-24T15:49:03.219Z,7.50
2023-02-24T15:51:37.609Z,6.88
2023-02-24T15:54:08.319Z,6.15
2023-02-24T15:56:36.218Z,6.55
2023-02-24T15:59:02.989Z,7.38
2023-02-24T16:01:31.077Z,6.60
2023-02-24T16:03:58.256Z,6.63
2023-02-24T16:06:27.198Z,7.20
2023-02-24T16:08:55.495Z,6.70
2023-02-24T16:11:27.782Z,7.20
2023-02-24T16:13:58.141Z,6.93
2023-02-24T16:16:26.382Z,6.85
2023-02-24T16:18:53.711Z,6.10
2023-02-24T16:23:47.269Z,6.50
2023-02-24T16:26:17.511Z,6.68
2023-02-24T16:28:51.286Z,6.65
2023-02-24T16:31:18.164Z,6.75
2023-02-24T16:33:54.447Z,7.35
2023-02-24T16:36:27.935Z,6.47
2023-02-24T16:38:54.860Z,7.25
2023-02-24T16:41:21.910Z,7.07
2023-02-24T16:43:48.752Z,7.03
2023-02-24T16:46:21.306Z,7.72
2023-02-24T16:48:51.126Z,7.38
2023-02-24T16:51:17.857Z,7.30
2023-02-24T16:53:44.663Z,7.20
2023-02-24T16:56:12.508Z,7.68
2023-02-24T16:58:39.186Z,7.80
2023-02-24T17:01:06.253Z,6.88
2023-02-24T17:03:43.987Z,7.88
2023-02-24T17:06:10.694Z,7.32
2023-02-24T17:08:37.804Z,7.55
2023-02-24T17:11:04.669Z,8.70
2023-02-24T17:13:31.349Z,14.60
2023-02-24T17:15:58.103Z,23.23
2023-02-24T17:18:25.949Z,17.73
2023-02-24T17:20:53.235Z,39.75
2023-02-24T17:25:52.916Z,11.32
2023-02-24T17:28:20.044Z,10.73
2023-02-24T17:30:46.905Z,13.18
2023-02-24T17:33:14.419Z,10.38
2023-02-24T17:35:42.142Z,9.40
2023-02-24T17:38:16.822Z,9.48
2023-02-24T17:40:44.877Z,9.85
2023-02-24T17:43:12.010Z,11.07
2023-02-24T17:48:13.165Z,11.55
2023-02-24T17:50:44.409Z,12.80
2023-02-24T17:53:11.643Z,9.85
2023-02-24T17:55:38.588Z,11.13
2023-02-24T17:58:06.278Z,18.30
2023-02-24T18:00:33.676Z,16.55
2023-02-24T18:05:30.144Z,29.38
2023-02-24T18:07:59.706Z,27.88
2023-02-24T18:10:27.335Z,14.77
2023-02-24T18:12:54.166Z,9.77
2023-02-24T18:15:20.873Z,8.73
2023-02-24T18:17:47.607Z,6.80
2023-02-24T18:20:14.308Z,8.45
2023-02-24T18:22:40.974Z,11.75
2023-02-24T18:25:08.023Z,10.48
2023-02-24T18:27:34.793Z,11.80
2023-02-24T18:30:01.633Z,14.55
2023-02-24T18:32:28.878Z,13.13
2023-02-24T18:37:22.403Z,8.13
2023-02-24T18:39:49.130Z,8.73
2023-02-24T18:42:15.786Z,10.38
2023-02-24T18:44:42.495Z,9.27
2023-02-24T18:47:09.722Z,7.75
2023-02-24T18:52:05.249Z,7.30
2023-02-24T18:54:33.627Z,8.00
2023-02-24T18:57:00.392Z,8.95
2023-02-24T18:59:27.122Z,8.23
2023-02-24T19:01:56.559Z,5.68
2023-02-24T19:04:24.118Z,3.65
2023-02-24T19:06:50.896Z,6.93
2023-02-24T19:09:21.464Z,8.90
2023-02-24T19:11:49.420Z,9.27
2023-02-24T19:14:16.452Z,9.45
2023-02-24T19:16:43.422Z,10.98
2023-02-24T19:19:13.926Z,9.88
2023-02-24T19:21:40.804Z,8.88
2023-02-24T19:24:11.047Z,8.55
2023-02-24T19:30:44.763Z,7.45
2023-02-24T19:33:11.615Z,7.43
2023-02-24T19:35:42.864Z,7.20
2023-02-24T19:38:14.802Z,7.75
2023-02-24T19:40:42.084Z,6.30
2023-02-24T19:45:35.430Z,6.80
2023-02-24T19:48:02.135Z,6.53
2023-02-24T19:50:29.489Z,6.82
2023-02-24T19:55:22.780Z,7.20
2023-02-24T19:57:53.678Z,10.00
2023-02-24T20:00:20.952Z,11.80
2023-02-24T20:05:15.414Z,8.00
2023-02-24T20:07:43.291Z,9.27
2023-02-24T20:10:11.111Z,12.00
2023-02-24T20:12:38.332Z,12.45
2023-02-24T20:15:07.097Z,11.32
2023-02-24T20:17:34.642Z,10.05
2023-02-24T20:20:01.352Z,6.63
2023-02-24T20:22:28.134Z,7.70
2023-02-24T20:24:54.975Z,9.68
2023-02-24T20:27:21.810Z,10.35
2023-02-24T20:29:48.510Z,7.32
2023-02-24T20:32:15.281Z,8.15
2023-02-24T20:34:42.505Z,9.25
2023-02-24T20:37:09.206Z,8.48
2023-02-24T20:39:36.457Z,8.77
2023-02-24T20:42:03.255Z,8.18
2023-02-24T20:44:29.967Z,9.60
2023-02-24T20:46:56.833Z,6.28
2023-02-24T20:49:23.722Z,6.75
2023-02-24T20:51:50.823Z,5.72
2023-02-24T20:54:17.684Z,5.72
2023-02-24T20:56:45.673Z,5.57
2023-02-24T20:59:18.208Z,6.72
2023-02-24T21:01:47.712Z,9.25
2023-02-24T21:04:16.331Z,8.45
2023-02-24T21:06:43.116Z,6.25
2023-02-24T21:09:11.940Z,7.70
2023-02-24T21:11:39.222Z,8.32
2023-02-24T21:14:07.027Z,6.43
2023-02-24T21:16:37.293Z,5.25
2023-02-24T21:19:04.035Z,5.03
2023-02-24T21:21:30.710Z,4.25
2023-02-24T21:23:57.375Z,5.07
2023-02-24T21:26:26.782Z,6.75
2023-02-24T21:28:57.482Z,6.15
2023-02-24T21:31:25.216Z,4.57
2023-02-24T21:36:21.433Z,5.20
2023-02-24T21:38:49.008Z,5.28
2023-02-24T21:41:16.372Z,4.47
2023-02-24T21:46:13.187Z,4.57
2023-02-24T21:48:40.748Z,4.88
2023-02-24T21:51:10.271Z,7.65
2023-02-24T21:53:39.219Z,6.00
2023-02-24T21:56:11.163Z,4.38
2023-02-24T21:58:39.358Z,5.15
2023-02-24T22:01:14.985Z,5.80
2023-02-24T22:03:41.760Z,5.70
2023-02-24T22:06:14.188Z,5.55
2023-02-24T22:08:45.329Z,4.22
2023-02-24T22:11:14.788Z,3.28
2023-02-24T22:13:42.643Z,3.28
2023-02-24T22:16:12.808Z,5.20
2023-02-24T22:18:40.227Z,5.20
2023-02-24T22:23:38.575Z,4.40
2023-02-24T22:26:08.186Z,4.45
2023-02-24T22:28:36.680Z,4.57
2023-02-24T22:31:04.051Z,3.58
2023-02-24T22:33:33.862Z,2.58
2023-02-24T22:36:12.904Z,1.55
2023-02-24T22:38:40.420Z,1.52
2023-02-24T22:41:10.879Z,2.25
2023-02-24T22:43:37.792Z,2.22
2023-02-24T22:46:06.671Z,2.58
2023-02-24T22:48:35.019Z,2.13
2023-02-24T22:51:03.730Z,2.38
2023-02-24T22:53:32.572Z,2.90
2023-02-24T22:55:59.470Z,2.17
2023-02-24T22:58:26.684Z,2.22
2023-02-24T23:00:54.580Z,1.70
2023-02-24T23:03:25.124Z,2.95
2023-02-24T23:05:57.501Z,2.20
2023-02-24T23:08:24.992Z,2.40
2023-02-24T23:10:52.269Z,1.88
2023-02-24T23:15:48.830Z,1.00
2023-02-24T23:18:16.363Z,1.20
2023-02-24T23:20:44.895Z,0.93
2023-02-24T23:23:11.755Z,1.00
2023-02-24T23:25:38.812Z,1.27
2023-02-24T23:28:06.488Z,1.33
2023-02-24T23:30:33.279Z,1.08
2023-02-24T23:33:00.943Z,1.08
2023-02-24T23:35:27.628Z,1.02
2023-02-24T23:37:54.316Z,0.70
2023-02-24T23:40:25.856Z,1.00
2023-02-24T23:42:53.177Z,0.80
2023-02-24T23:47:46.904Z,0.90
2023-02-24T23:50:13.596Z,0.93
2023-02-24T23:52:40.319Z,0.60
2023-02-24T23:55:07.563Z,0.98
2023-02-24T23:57:34.268Z,0.82
